Toll Gate Heights, Indiana
Current Conditions -  °F | °C
As of 11:54 AM on Saturday 25 Oct 2014 (Local Time) from KFWA Reporting Station
Few Clouds Few Clouds  
Wind Chill: 65°   Ceiling: Unl
Heat Index: 65°   Visibility: 8mi
Dew Point: 54°   Wind: 14mph
Humidity: 68%   Direction: 250°WSW
Pressure: 29.91"   Gusts: NA
Location:  40.7175°N, 85.1549°W
Report Text: KFWA 251554Z 25012KT 8SM FEW300 18/12 A2991 RMK AO2 SLP129 T01830122
Loading
Personal Weather Stations






























Interactive Weather Map
Tropical Storm Tracking
New forecast layout! Learn more

10-Day Weather Forecast

Advertisements
Track Severe Weather on mobile